Aérodrome :
LOGIN :

S'inscrire | Disclaimer

   EN    FR    IT 

 










Légende :    VFR   VFR Marginal   IFR   IFR Intensif   IFR Très Intensif
Visi : 
Plafond : 
>= 8 km
>= 3000ft
5 à 8 km
1000 à 3000 ft
1500m à 5 km
500 à 1000 ft
800 à 1500m
200 à 500 ft
< 800m
< 200 ft
Symboles :   Orages  Brouillard  Fortes neiges  Fortes précipitations  Vent > 20 kt
SIGMETs :   Divers  Orages  Givrage  Turbulence  Onde Orograph.  Cendres Volcan.






- Altitude de l'aérodrome : 659 ft
- Code IATA : LGG


EBLG - Liège

DERNIER METAR :
  • 032320Z 32003KT CAVOK 14/10 Q1021 NOSIG

METARs EXPIRÉS :
  • 032220Z 32004KT CAVOK 14/10 Q1021 NOSIG
  • 032150Z 30003KT CAVOK 15/10 Q1021 NOSIG
  • 032120Z 30003KT CAVOK 15/10 Q1021 NOSIG
  • 032050Z 32002KT CAVOK 16/11 Q1021 NOSIG

TAF TAF EBLG
Valide du 03 à 18h jusqu'au 05 à 00h UTC


031700Z 0318/0424 31005KT 9999 FEW040



MET'MAP, la Météo Aéronautique d'un coup d'oeil ! - Copyright ORBIFLY Décembre 2007 - Disclaimer

ORBIFLY MET'MAP TEAM :

Programmation & Développement : Alexandra Zaïnal
Sur une idée originale de : Baudouin d'Aumeries
Soutien technique & logistique : Manuel Goepfert
Assistance : Marc-Olivier Méhu




SOURCES & CREDITS :

   NOAA